createdAt,value
2022-08-21T00:01:46.887Z,16.79
2022-08-21T00:04:14.637Z,16.76
2022-08-21T00:06:48.492Z,16.75
2022-08-21T00:09:14.964Z,16.65
2022-08-21T00:11:41.550Z,16.62
2022-08-21T00:14:10.055Z,16.59
2022-08-21T00:16:36.576Z,16.63
2022-08-21T00:19:03.807Z,16.60
2022-08-21T00:21:30.379Z,16.56
2022-08-21T00:23:57.018Z,16.49
2022-08-21T00:26:23.823Z,16.49
2022-08-21T00:28:50.362Z,16.48
2022-08-21T00:31:18.945Z,16.45
2022-08-21T00:33:46.478Z,16.47
2022-08-21T00:36:13.920Z,16.44
2022-08-21T00:38:40.634Z,16.38
2022-08-21T00:41:36.519Z,16.27
2022-08-21T00:43:57.531Z,16.30
2022-08-21T00:46:24.760Z,16.33
2022-08-21T00:48:57.268Z,16.34
2022-08-21T00:51:33.797Z,16.33
2022-08-21T00:54:06.491Z,16.34
2022-08-21T00:56:39.531Z,16.35
2022-08-21T00:59:08.546Z,16.38
2022-08-21T01:01:35.304Z,16.36
2022-08-21T01:04:02.505Z,16.38
2022-08-21T01:06:28.979Z,16.42
2022-08-21T01:08:55.579Z,16.40
2022-08-21T01:11:22.328Z,16.40
2022-08-21T01:13:49.338Z,16.46
2022-08-21T01:16:20.236Z,16.38
2022-08-21T01:18:48.615Z,16.37
2022-08-21T01:21:28.259Z,16.35
2022-08-21T01:23:57.106Z,16.34
2022-08-21T01:26:34.492Z,16.29
2022-08-21T01:29:13.553Z,16.32
2022-08-21T01:31:40.550Z,16.34
2022-08-21T01:34:07.373Z,16.28
2022-08-21T01:36:34.842Z,16.37
2022-08-21T01:39:02.557Z,16.32
2022-08-21T01:41:29.058Z,16.37
2022-08-21T01:43:55.526Z,16.26
2022-08-21T01:46:22.091Z,16.21
2022-08-21T01:48:49.083Z,16.17
2022-08-21T01:51:15.850Z,16.08
2022-08-21T01:53:42.345Z,16.12
2022-08-21T01:56:12.715Z,16.04
2022-08-21T01:58:40.963Z,16.12
2022-08-21T02:01:08.375Z,16.07
2022-08-21T02:03:35.597Z,16.02
2022-08-21T02:06:04.828Z,15.91
2022-08-21T02:08:32.311Z,15.97
2022-08-21T02:10:58.774Z,16.00
2022-08-21T02:13:25.296Z,15.88
2022-08-21T02:15:51.771Z,15.88
2022-08-21T02:18:18.328Z,15.90
2022-08-21T02:20:48.170Z,15.88
2022-08-21T02:23:16.135Z,15.88
2022-08-21T02:25:46.746Z,15.85
2022-08-21T02:28:15.613Z,15.88
2022-08-21T02:30:45.339Z,15.83
2022-08-21T02:33:13.088Z,15.76
2022-08-21T02:35:43.006Z,15.73
2022-08-21T02:38:13.115Z,15.70
2022-08-21T02:40:43.834Z,15.65
2022-08-21T02:43:16.383Z,15.64
2022-08-21T02:45:44.209Z,15.61
2022-08-21T02:48:13.012Z,15.51
2022-08-21T02:50:43.599Z,15.42
2022-08-21T02:53:14.243Z,15.36
2022-08-21T02:55:40.826Z,15.37
2022-08-21T02:58:08.724Z,15.35
2022-08-21T03:00:37.611Z,15.32
2022-08-21T03:03:05.376Z,15.34
2022-08-21T03:05:33.215Z,15.35
2022-08-21T03:08:01.323Z,15.29
2022-08-21T03:10:29.946Z,15.26
2022-08-21T03:12:56.632Z,15.23
2022-08-21T03:15:27.224Z,15.17
2022-08-21T03:17:55.525Z,15.17
2022-08-21T03:20:25.009Z,15.11
2022-08-21T03:22:53.329Z,15.14
2022-08-21T03:25:39.578Z,15.16
2022-08-21T03:28:12.835Z,15.21
2022-08-21T03:30:43.675Z,15.18
2022-08-21T03:33:13.235Z,15.17
2022-08-21T03:35:44.168Z,15.23
2022-08-21T03:38:11.087Z,15.21
2022-08-21T03:40:37.543Z,15.17
2022-08-21T03:43:04.031Z,15.18
2022-08-21T03:45:30.527Z,15.14
2022-08-21T03:47:59.519Z,15.16
2022-08-21T03:50:28.978Z,15.15
2022-08-21T03:52:56.064Z,15.08
2022-08-21T03:55:23.316Z,14.98
2022-08-21T03:57:49.841Z,14.95
2022-08-21T04:00:17.759Z,14.91
2022-08-21T04:02:44.674Z,14.97
2022-08-21T04:05:14.621Z,15.02
2022-08-21T04:07:41.178Z,14.99
2022-08-21T04:10:08.743Z,14.92
2022-08-21T04:12:35.523Z,14.93
2022-08-21T04:15:02.929Z,14.81
2022-08-21T04:17:29.491Z,14.83
2022-08-21T04:19:56.084Z,14.79
2022-08-21T04:22:23.313Z,14.78
2022-08-21T04:24:50.831Z,14.67
2022-08-21T04:27:17.287Z,14.70
2022-08-21T04:29:43.723Z,14.72
2022-08-21T04:32:10.213Z,14.69
2022-08-21T04:34:36.650Z,14.79
2022-08-21T04:37:03.202Z,14.75
2022-08-21T04:39:29.956Z,14.76
2022-08-21T04:41:56.722Z,14.69
2022-08-21T04:44:23.186Z,14.72
2022-08-21T04:46:49.623Z,14.77
2022-08-21T04:49:16.107Z,14.72
2022-08-21T04:51:42.723Z,14.86
2022-08-21T04:54:17.955Z,14.84
2022-08-21T04:57:04.657Z,14.83
2022-08-21T04:59:41.633Z,14.82
2022-08-21T05:02:09.711Z,14.85
2022-08-21T05:04:41.957Z,14.89
2022-08-21T05:07:15.008Z,14.91
2022-08-21T05:09:42.140Z,14.91
2022-08-21T05:12:08.916Z,14.93
2022-08-21T05:14:35.396Z,14.94
2022-08-21T05:17:01.867Z,14.98
2022-08-21T05:19:28.563Z,15.00
2022-08-21T05:21:55.559Z,15.07
2022-08-21T05:24:22.187Z,15.15
2022-08-21T05:26:48.735Z,15.24
2022-08-21T05:29:16.818Z,15.13
2022-08-21T05:31:46.050Z,15.21
2022-08-21T05:34:16.160Z,15.21
2022-08-21T05:36:43.550Z,15.27
2022-08-21T05:39:10.027Z,15.27
2022-08-21T05:41:36.663Z,15.31
2022-08-21T05:44:03.252Z,15.36
2022-08-21T05:46:36.954Z,15.43
2022-08-21T05:49:03.460Z,15.29
2022-08-21T05:51:29.925Z,15.47
2022-08-21T05:53:56.422Z,15.47
2022-08-21T05:56:23.061Z,15.53
2022-08-21T05:58:49.565Z,15.51
2022-08-21T06:01:16.788Z,15.57
2022-08-21T06:03:43.690Z,15.54
2022-08-21T06:06:10.875Z,15.58
2022-08-21T06:08:37.902Z,15.75
2022-08-21T06:11:05.722Z,15.51
2022-08-21T06:13:32.416Z,15.62
2022-08-21T06:16:11.515Z,15.70
2022-08-21T06:18:42.796Z,15.71
2022-08-21T06:21:09.604Z,15.82
2022-08-21T06:23:36.404Z,15.97
2022-08-21T06:26:05.595Z,16.16
2022-08-21T06:28:33.095Z,16.26
2022-08-21T06:30:59.986Z,16.41
2022-08-21T06:33:31.950Z,16.36
2022-08-21T06:35:59.088Z,16.49
2022-08-21T06:38:25.644Z,16.70
2022-08-21T06:40:53.034Z,16.64
2022-08-21T06:43:19.861Z,17.17
2022-08-21T06:45:46.631Z,17.11
2022-08-21T06:48:18.420Z,17.14
2022-08-21T06:50:45.574Z,17.54
2022-08-21T06:53:13.940Z,17.55
2022-08-21T06:55:41.696Z,18.02
2022-08-21T06:58:08.220Z,17.89
2022-08-21T07:00:36.564Z,18.12
2022-08-21T07:03:03.349Z,17.96
2022-08-21T07:05:31.074Z,18.02
2022-08-21T07:07:58.212Z,18.41
2022-08-21T07:10:26.501Z,17.98
2022-08-21T07:13:00.020Z,18.21
2022-08-21T07:15:28.847Z,18.31
2022-08-21T07:17:57.304Z,18.25
2022-08-21T07:20:23.859Z,18.40
2022-08-21T07:22:53.411Z,18.00
2022-08-21T07:25:19.994Z,18.21
2022-08-21T07:27:46.464Z,18.60
2022-08-21T07:30:13.165Z,18.82
2022-08-21T07:32:39.634Z,18.67
2022-08-21T07:35:06.375Z,18.81
2022-08-21T07:37:32.836Z,18.81
2022-08-21T07:39:59.326Z,18.85
2022-08-21T07:42:26.077Z,19.06
2022-08-21T07:44:56.487Z,19.50
2022-08-21T07:47:29.574Z,19.57
2022-08-21T07:50:10.486Z,19.38
2022-08-21T07:52:37.026Z,18.95
2022-08-21T07:55:06.293Z,19.45
2022-08-21T07:57:33.447Z,19.41
2022-08-21T07:59:59.889Z,19.79
2022-08-21T08:02:29.873Z,19.64
2022-08-21T08:05:00.951Z,20.22
2022-08-21T08:07:27.809Z,20.33
2022-08-21T08:09:54.326Z,19.78
2022-08-21T08:12:21.659Z,20.43
2022-08-21T08:14:48.224Z,20.36
2022-08-21T08:17:14.777Z,20.62
2022-08-21T08:19:41.230Z,20.91
2022-08-21T08:22:16.532Z,20.87
2022-08-21T08:24:43.417Z,21.26
2022-08-21T08:27:09.925Z,21.37
2022-08-21T08:29:36.396Z,21.60
2022-08-21T08:32:04.289Z,21.58
2022-08-21T08:34:31.402Z,21.77
2022-08-21T08:37:02.198Z,21.88
2022-08-21T08:39:29.579Z,21.80
2022-08-21T08:42:33.024Z,22.11
2022-08-21T08:45:10.386Z,21.96
2022-08-21T08:47:43.240Z,22.16
2022-08-21T08:50:12.390Z,22.07
2022-08-21T08:52:48.050Z,22.00
2022-08-21T08:55:25.368Z,22.38
2022-08-21T08:57:56.034Z,22.83
2022-08-21T09:00:25.655Z,22.68
2022-08-21T09:02:59.642Z,22.85
2022-08-21T09:05:32.060Z,22.84
2022-08-21T09:08:32.031Z,22.61
2022-08-21T09:11:04.565Z,23.00
2022-08-21T09:13:40.191Z,23.22
2022-08-21T09:16:17.487Z,23.39
2022-08-21T09:18:53.567Z,23.28
2022-08-21T09:21:53.684Z,23.01
2022-08-21T09:24:34.518Z,23.10
2022-08-21T09:27:08.792Z,23.29
2022-08-21T09:29:39.677Z,23.11
2022-08-21T09:32:22.435Z,22.95
2022-08-21T09:34:59.393Z,22.93
2022-08-21T09:37:27.718Z,23.03
2022-08-21T09:39:54.293Z,23.19
2022-08-21T09:42:33.030Z,23.32
2022-08-21T09:45:15.918Z,23.23
2022-08-21T09:47:42.927Z,23.39
2022-08-21T09:50:13.612Z,23.47
2022-08-21T09:52:57.042Z,23.53
2022-08-21T09:56:07.071Z,23.10
2022-08-21T09:58:38.200Z,22.69
2022-08-21T10:01:06.896Z,22.94
2022-08-21T10:03:34.016Z,23.27
2022-08-21T10:06:06.210Z,23.11
2022-08-21T10:08:38.207Z,22.73
2022-08-21T10:11:13.988Z,23.10
2022-08-21T10:13:53.889Z,23.40
2022-08-21T10:16:53.503Z,23.79
2022-08-21T10:19:41.063Z,23.64
2022-08-21T10:22:18.102Z,23.80
2022-08-21T10:25:03.346Z,23.89
2022-08-21T10:28:01.798Z,24.08
2022-08-21T10:30:59.273Z,24.39
2022-08-21T10:33:58.628Z,24.27
2022-08-21T10:36:47.276Z,23.87
2022-08-21T10:40:08.432Z,24.32
2022-08-21T10:43:02.871Z,24.90
2022-08-21T10:45:47.571Z,24.83
2022-08-21T10:48:41.363Z,25.30
2022-08-21T10:51:37.547Z,24.86
2022-08-21T10:54:32.694Z,25.08
2022-08-21T10:57:10.331Z,24.91
2022-08-21T10:59:51.221Z,25.04
2022-08-21T11:02:38.285Z,24.99
2022-08-21T11:05:28.409Z,25.43
2022-08-21T11:08:02.579Z,25.06
2022-08-21T11:10:40.833Z,25.96
2022-08-21T11:13:35.268Z,26.73
2022-08-21T11:16:13.872Z,27.07
2022-08-21T11:18:46.331Z,26.62
2022-08-21T11:21:34.637Z,26.48
2022-08-21T11:24:45.603Z,27.74
2022-08-21T11:27:19.810Z,27.53
2022-08-21T11:29:50.996Z,28.54
2022-08-21T11:32:42.240Z,29.06
2022-08-21T11:35:20.736Z,27.68
2022-08-21T11:37:57.102Z,26.79
2022-08-21T11:40:57.596Z,27.45
2022-08-21T11:43:39.469Z,28.05
2022-08-21T11:46:19.684Z,27.19
2022-08-21T11:49:02.658Z,27.20
2022-08-21T11:51:38.367Z,25.97
2022-08-21T11:54:14.453Z,25.34
2022-08-21T11:56:54.278Z,24.63
2022-08-21T11:59:52.103Z,25.29
2022-08-21T12:02:22.385Z,26.25
2022-08-21T12:05:00.338Z,27.28
2022-08-21T12:07:35.026Z,27.22
2022-08-21T12:10:06.331Z,27.11
2022-08-21T12:12:35.791Z,26.49
2022-08-21T12:15:20.587Z,26.35
2022-08-21T12:18:03.726Z,26.81
2022-08-21T12:20:33.166Z,27.43
2022-08-21T12:23:12.922Z,28.73
2022-08-21T12:25:43.126Z,28.80
2022-08-21T12:28:13.182Z,30.03
2022-08-21T12:30:44.250Z,28.85
2022-08-21T12:33:32.381Z,28.85
2022-08-21T12:36:11.606Z,27.88
2022-08-21T12:38:51.137Z,26.73
2022-08-21T12:41:28.516Z,26.44
2022-08-21T12:44:08.446Z,25.96
2022-08-21T12:46:46.803Z,25.66
2022-08-21T12:49:29.194Z,25.59
2022-08-21T12:52:33.596Z,25.47
2022-08-21T12:55:02.656Z,25.10
2022-08-21T12:57:30.788Z,25.02
2022-08-21T13:00:01.638Z,24.92
2022-08-21T13:02:36.468Z,24.82
2022-08-21T13:05:06.482Z,24.85
2022-08-21T13:07:35.843Z,24.83
2022-08-21T13:10:25.019Z,25.13
2022-08-21T13:12:55.048Z,26.29
2022-08-21T13:15:33.363Z,25.97
2022-08-21T13:18:03.531Z,25.55
2022-08-21T13:20:39.373Z,25.96
2022-08-21T13:23:27.386Z,26.53
2022-08-21T13:25:54.987Z,26.46
2022-08-21T13:28:22.250Z,26.62
2022-08-21T13:30:51.867Z,26.82
2022-08-21T13:33:21.293Z,26.44
2022-08-21T13:35:49.548Z,25.99
2022-08-21T13:38:17.490Z,25.96
2022-08-21T13:40:55.059Z,25.93
2022-08-21T13:43:28.682Z,25.65
2022-08-21T13:45:56.963Z,25.12
2022-08-21T13:48:27.148Z,25.58
2022-08-21T13:50:54.878Z,25.71
2022-08-21T13:53:22.998Z,26.07
2022-08-21T13:55:49.479Z,26.04
2022-08-21T13:58:44.712Z,25.61
2022-08-21T14:01:30.945Z,26.18
2022-08-21T14:04:17.559Z,25.90
2022-08-21T14:06:44.216Z,26.13
2022-08-21T14:09:33.254Z,26.37
2022-08-21T14:12:03.891Z,26.29
2022-08-21T14:14:34.710Z,26.51
2022-08-21T14:17:24.043Z,26.08
2022-08-21T14:19:51.288Z,26.54
2022-08-21T14:22:46.106Z,26.35
2022-08-21T14:25:17.155Z,26.39
2022-08-21T14:27:53.986Z,26.38
2022-08-21T14:30:30.792Z,26.06
2022-08-21T14:32:58.149Z,26.11
2022-08-21T14:35:24.906Z,25.97
2022-08-21T14:37:52.415Z,26.38
2022-08-21T14:40:20.775Z,26.49
2022-08-21T14:42:47.900Z,26.57
2022-08-21T14:45:16.528Z,26.70
2022-08-21T14:47:44.704Z,26.68
2022-08-21T14:50:13.456Z,26.88
2022-08-21T14:52:41.731Z,26.91
2022-08-21T14:55:14.676Z,26.87
2022-08-21T14:57:46.421Z,26.72
2022-08-21T15:00:21.224Z,26.87
2022-08-21T15:02:47.730Z,26.79
2022-08-21T15:05:16.258Z,26.46
2022-08-21T15:07:58.139Z,26.31
2022-08-21T15:10:24.739Z,26.33
2022-08-21T15:12:51.240Z,26.51
2022-08-21T15:15:17.902Z,26.49
2022-08-21T15:17:48.132Z,26.33
2022-08-21T15:20:15.217Z,26.68
2022-08-21T15:22:41.747Z,26.68
2022-08-21T15:25:14.302Z,26.70
2022-08-21T15:27:40.965Z,26.73
2022-08-21T15:30:07.959Z,26.75
2022-08-21T15:32:34.553Z,26.59
2022-08-21T15:35:01.196Z,26.10
2022-08-21T15:37:27.835Z,26.05
2022-08-21T15:39:54.712Z,26.28
2022-08-21T15:42:22.424Z,26.36
2022-08-21T15:44:49.464Z,26.39
2022-08-21T15:47:19.700Z,26.05
2022-08-21T15:49:46.591Z,25.80
2022-08-21T15:52:19.428Z,25.66
2022-08-21T15:54:46.355Z,25.58
2022-08-21T15:57:15.093Z,25.36
2022-08-21T15:59:48.024Z,25.38
2022-08-21T16:02:18.419Z,25.60
2022-08-21T16:04:44.951Z,25.50
2022-08-21T16:07:12.212Z,25.57
2022-08-21T16:09:38.923Z,25.69
2022-08-21T16:12:06.656Z,25.90
2022-08-21T16:14:37.168Z,25.83
2022-08-21T16:17:07.735Z,25.87
2022-08-21T16:19:35.975Z,25.92
2022-08-21T16:22:02.471Z,25.81
2022-08-21T16:24:28.989Z,25.89
2022-08-21T16:26:58.160Z,25.92
2022-08-21T16:29:30.371Z,25.78
2022-08-21T16:31:56.944Z,25.80
2022-08-21T16:34:23.908Z,25.72
2022-08-21T16:36:50.381Z,25.70
2022-08-21T16:39:16.966Z,25.70
2022-08-21T16:41:44.460Z,25.51
2022-08-21T16:44:11.237Z,25.62
2022-08-21T16:46:40.413Z,25.50
2022-08-21T16:49:07.987Z,25.52
2022-08-21T16:51:34.676Z,25.51
2022-08-21T16:54:01.248Z,25.46
2022-08-21T16:56:28.606Z,25.48
2022-08-21T16:58:56.999Z,25.36
2022-08-21T17:01:29.723Z,25.22
2022-08-21T17:03:56.467Z,25.00
2022-08-21T17:06:23.923Z,24.88
2022-08-21T17:08:56.139Z,24.81
2022-08-21T17:11:37.309Z,24.84
2022-08-21T17:14:08.040Z,24.70
2022-08-21T17:16:35.317Z,24.73
2022-08-21T17:19:01.846Z,24.65
2022-08-21T17:21:28.333Z,24.59
2022-08-21T17:23:54.779Z,24.54
2022-08-21T17:26:21.335Z,24.43
2022-08-21T17:28:49.345Z,24.35
2022-08-21T17:31:18.374Z,24.37
2022-08-21T17:33:50.614Z,24.30
2022-08-21T17:36:23.470Z,24.20
2022-08-21T17:38:50.743Z,24.10
2022-08-21T17:41:18.109Z,23.95
2022-08-21T17:43:44.601Z,23.87
2022-08-21T17:46:19.739Z,23.71
2022-08-21T17:48:47.373Z,23.54
2022-08-21T17:51:15.051Z,23.38
2022-08-21T17:53:42.614Z,23.19
2022-08-21T17:56:09.775Z,23.04
2022-08-21T17:58:37.742Z,22.95
2022-08-21T18:01:05.975Z,22.71
2022-08-21T18:03:37.181Z,22.62
2022-08-21T18:06:05.652Z,22.37
2022-08-21T18:08:32.721Z,22.29
2022-08-21T18:11:00.179Z,22.18
2022-08-21T18:13:30.234Z,22.05
2022-08-21T18:15:58.745Z,21.92
2022-08-21T18:18:26.956Z,21.85
2022-08-21T18:20:55.821Z,21.70
2022-08-21T18:23:25.036Z,21.60
2022-08-21T18:26:09.448Z,21.52
2022-08-21T18:28:37.211Z,21.42
2022-08-21T18:31:04.825Z,21.25
2022-08-21T18:33:31.356Z,21.22
2022-08-21T18:35:57.778Z,21.01
2022-08-21T18:38:24.476Z,20.85
2022-08-21T18:40:55.963Z,20.75
2022-08-21T18:43:23.075Z,20.62
2022-08-21T18:45:49.682Z,20.51
2022-08-21T18:48:17.802Z,20.39
2022-08-21T18:53:33.743Z,20.12
2022-08-21T18:56:05.353Z,20.01
2022-08-21T18:58:32.431Z,20.00
2022-08-21T19:00:58.924Z,19.94
2022-08-21T19:03:25.495Z,19.82
2022-08-21T19:05:53.837Z,19.81
2022-08-21T19:08:22.889Z,19.78
2022-08-21T19:10:51.215Z,19.66
2022-08-21T19:13:20.375Z,19.56
2022-08-21T19:15:52.696Z,19.52
2022-08-21T19:21:07.066Z,19.33
2022-08-21T19:23:35.226Z,19.28
2022-08-21T19:26:06.770Z,19.16
2022-08-21T19:28:38.126Z,19.07
2022-08-21T19:31:12.722Z,19.01
2022-08-21T19:33:46.119Z,18.92
2022-08-21T19:36:18.345Z,18.87
2022-08-21T19:38:45.841Z,18.80
2022-08-21T19:41:15.702Z,18.73
2022-08-21T19:43:55.066Z,18.66
2022-08-21T19:46:28.478Z,18.58
2022-08-21T19:48:55.906Z,18.55
2022-08-21T19:51:23.397Z,18.52
2022-08-21T19:53:55.810Z,18.44
2022-08-21T19:56:26.593Z,18.39
2022-08-21T19:58:53.708Z,18.35
2022-08-21T20:01:22.306Z,18.28
2022-08-21T20:03:54.097Z,18.23
2022-08-21T20:06:24.061Z,18.21
2022-08-21T20:08:51.811Z,18.16
2022-08-21T20:11:26.231Z,18.08
2022-08-21T20:13:53.923Z,17.99
2022-08-21T20:16:21.536Z,17.98
2022-08-21T20:18:48.904Z,17.86
2022-08-21T20:21:17.815Z,17.81
2022-08-21T20:23:48.935Z,17.72
2022-08-21T20:26:16.722Z,17.72
2022-08-21T20:28:43.496Z,17.69
2022-08-21T20:31:10.638Z,17.62
2022-08-21T20:33:37.770Z,17.55
2022-08-21T20:36:04.575Z,17.46
2022-08-21T20:38:31.706Z,17.40
2022-08-21T20:40:58.757Z,17.39
2022-08-21T20:43:26.759Z,17.37
2022-08-21T20:45:55.119Z,17.33
2022-08-21T20:48:30.809Z,17.26
2022-08-21T20:51:04.742Z,17.26
2022-08-21T20:56:31.908Z,17.16
2022-08-21T20:59:18.754Z,17.06
2022-08-21T21:01:47.287Z,17.02
2022-08-21T21:04:27.832Z,16.95
2022-08-21T21:06:59.147Z,16.87
2022-08-21T21:09:40.347Z,16.89
2022-08-21T21:12:16.064Z,16.83
2022-08-21T21:14:46.879Z,16.76
2022-08-21T21:17:19.233Z,16.88
2022-08-21T21:20:27.294Z,16.93
2022-08-21T21:23:04.618Z,16.76
2022-08-21T21:25:45.286Z,16.77
2022-08-21T21:28:29.117Z,16.77
2022-08-21T21:30:57.801Z,16.78
2022-08-21T21:33:24.711Z,16.70
2022-08-21T21:35:58.995Z,16.72
2022-08-21T21:41:32.849Z,16.62
2022-08-21T21:44:11.952Z,16.55
2022-08-21T21:47:11.841Z,16.51
2022-08-21T21:50:01.852Z,16.48
2022-08-21T21:52:54.670Z,16.52
2022-08-21T21:55:40.737Z,16.43
2022-08-21T21:58:20.683Z,16.37
2022-08-21T22:01:00.256Z,16.34
2022-08-21T22:03:41.655Z,16.27
2022-08-21T22:06:30.683Z,16.28
2022-08-21T22:09:18.708Z,16.27
2022-08-21T22:12:02.126Z,16.22
2022-08-21T22:14:37.103Z,16.10
2022-08-21T22:17:23.503Z,16.09
2022-08-21T22:19:52.493Z,16.11
2022-08-21T22:22:22.949Z,16.03
2022-08-21T22:24:53.782Z,16.00
2022-08-21T22:27:35.381Z,15.95
2022-08-21T22:30:07.079Z,15.96
2022-08-21T22:32:40.178Z,15.90
2022-08-21T22:35:22.523Z,15.88
2022-08-21T22:37:59.316Z,15.83
2022-08-21T22:40:29.752Z,15.80
2022-08-21T22:43:02.548Z,15.79
2022-08-21T22:45:30.817Z,15.82
2022-08-21T22:48:11.277Z,15.76
2022-08-21T22:50:46.080Z,15.70
2022-08-21T22:53:26.970Z,15.50
2022-08-21T22:56:01.693Z,15.51
2022-08-21T22:58:33.116Z,15.72
2022-08-21T23:01:02.965Z,15.82
2022-08-21T23:03:44.613Z,15.84
2022-08-21T23:06:46.443Z,15.93
2022-08-21T23:09:30.001Z,16.02
2022-08-21T23:12:21.428Z,15.98
2022-08-21T23:14:48.486Z,15.94
2022-08-21T23:17:34.575Z,15.91
2022-08-21T23:20:17.172Z,15.95
2022-08-21T23:23:08.985Z,15.93
2022-08-21T23:26:02.687Z,15.87
2022-08-21T23:28:55.116Z,15.84
2022-08-21T23:31:35.582Z,15.71
2022-08-21T23:34:05.833Z,15.76
2022-08-21T23:37:09.136Z,15.82
2022-08-21T23:40:04.727Z,15.71
2022-08-21T23:42:59.461Z,15.75
2022-08-21T23:45:38.613Z,15.67
2022-08-21T23:48:29.376Z,15.65
2022-08-21T23:51:10.773Z,15.62
2022-08-21T23:53:51.404Z,15.67
2022-08-21T23:56:51.051Z,15.63
2022-08-21T23:59:36.194Z,15.68
